Time;durP1;ratioP1;P1;durP2;ratioP2;P2;SDS_P1;SDS_P2;PMS_P1;PMS_P2;Temp;Humidity;BMP_temperature;BMP_pressure;BME280_temperature;BME280_humidity;BME280_pressure;Samples;Min_cycle;Max_cycle;Signal;HPM_P1;HPM_P2
2021/10/22 00:01:47;;;;;;;21.38;5.28;;;9.60;99.90;;;;;;5056229;28;20535;-75
2021/10/22 00:04:13;;;;;;;16.83;4.57;;;9.50;99.90;;;;;;5063310;28;20459;-74
2021/10/22 00:06:39;;;;;;;17.35;5.13;;;9.60;99.90;;;;;;5060882;28;20025;-75
2021/10/22 00:09:05;;;;;;;22.95;5.15;;;9.50;99.90;;;;;;5058243;28;20025;-75
2021/10/22 00:11:31;;;;;;;33.10;5.50;;;9.50;99.90;;;;;;5055402;28;20041;-75
2021/10/22 00:13:57;;;;;;;21.85;5.55;;;9.50;99.90;;;;;;5053162;28;20397;-75
2021/10/22 00:16:24;;;;;;;25.38;5.68;;;9.50;99.90;;;;;;5055762;28;20055;-75
2021/10/22 00:18:50;;;;;;;26.00;6.72;;;9.50;99.90;;;;;;5059412;28;20036;-76
2021/10/22 00:21:16;;;;;;;26.52;7.03;;;9.30;99.90;;;;;;5057064;28;20353;-75
2021/10/22 00:23:42;;;;;;;23.65;6.25;;;9.40;99.90;;;;;;5058466;28;20028;-75
2021/10/22 00:26:09;;;;;;;23.20;6.53;;;9.30;99.90;;;;;;5061653;28;20033;-75
2021/10/22 00:28:35;;;;;;;29.08;6.63;;;9.30;99.90;;;;;;5057534;28;20029;-75
2021/10/22 00:31:01;;;;;;;24.98;6.45;;;9.30;99.90;;;;;;5063680;28;20041;-75
2021/10/22 00:33:27;;;;;;;22.23;5.88;;;9.20;99.90;;;;;;5062748;28;20116;-74
2021/10/22 00:35:52;;;;;;;27.50;6.28;;;9.10;99.90;;;;;;5055230;28;20040;-75
2021/10/22 00:38:18;;;;;;;21.40;6.10;;;9.10;99.90;;;;;;5060487;28;20025;-76
2021/10/22 00:40:45;;;;;;;22.30;5.93;;;9.10;99.90;;;;;;5058679;28;20076;-76
2021/10/22 00:43:14;;;;;;;20.33;5.32;;;9.10;99.90;;;;;;5069009;28;20615;-76
2021/10/22 00:45:40;;;;;;;20.05;6.35;;;9.10;99.90;;;;;;5057663;28;20029;-75
2021/10/22 00:48:08;;;;;;;18.40;5.57;;;9.10;99.90;;;;;;5068507;28;20027;-76
2021/10/22 00:50:44;;;;;;;30.58;6.13;;;9.10;99.90;;;;;;5071682;28;20099;-76
2021/10/22 00:53:10;;;;;;;26.45;6.60;;;9.10;99.90;;;;;;5065507;28;20542;-75
2021/10/22 00:55:36;;;;;;;24.83;6.13;;;9.20;99.90;;;;;;5066043;28;20073;-76
2021/10/22 00:58:02;;;;;;;18.65;5.43;;;9.20;99.90;;;;;;5065383;28;20104;-76
2021/10/22 01:00:27;;;;;;;20.52;5.65;;;9.20;99.90;;;;;;5064480;28;20079;-76
2021/10/22 01:02:53;;;;;;;23.05;5.13;;;9.10;99.90;;;;;;5066599;28;20032;-76
2021/10/22 01:05:19;;;;;;;17.60;5.15;;;9.10;99.90;;;;;;5069437;28;20036;-76
2021/10/22 01:07:44;;;;;;;22.45;6.28;;;9.10;99.90;;;;;;5066152;28;20396;-76
2021/10/22 01:10:12;;;;;;;20.23;5.28;;;9.10;99.90;;;;;;5067495;28;20085;-75
2021/10/22 01:12:39;;;;;;;20.55;5.15;;;9.00;99.90;;;;;;5063837;28;20012;-74
2021/10/22 01:15:05;;;;;;;15.88;4.80;;;9.00;99.90;;;;;;5070967;28;20029;-76
2021/10/22 01:17:37;;;;;;;20.83;5.15;;;9.00;99.90;;;;;;5060831;28;20393;-74
2021/10/22 01:20:04;;;;;;;21.00;5.75;;;9.00;99.90;;;;;;5068625;28;20032;-74
2021/10/22 01:22:29;;;;;;;42.95;24.02;;;9.00;99.90;;;;;;5067229;28;20036;-75
2021/10/22 01:24:55;;;;;;;13.75;5.68;;;8.90;99.90;;;;;;5063242;28;20032;-76
2021/10/22 01:27:22;;;;;;;18.35;4.60;;;9.00;99.90;;;;;;5066887;28;20067;-74
2021/10/22 01:29:48;;;;;;;19.77;4.88;;;9.00;99.90;;;;;;5068430;28;20051;-81
2021/10/22 01:32:13;;;;;;;21.20;5.28;;;9.00;99.90;;;;;;5071201;28;20052;-79
2021/10/22 01:34:39;;;;;;;13.25;4.63;;;8.80;99.90;;;;;;5068806;28;20033;-75
2021/10/22 01:37:05;;;;;;;18.75;4.00;;;8.90;99.90;;;;;;5065414;28;20242;-74
2021/10/22 01:39:31;;;;;;;21.77;5.40;;;8.90;99.90;;;;;;5067484;28;20036;-87
2021/10/22 01:41:56;;;;;;;20.63;4.53;;;8.80;99.90;;;;;;5075381;28;20481;-77
2021/10/22 01:44:23;;;;;;;15.98;4.35;;;8.80;99.90;;;;;;5064231;28;20036;-84
2021/10/22 01:46:50;;;;;;;12.95;4.18;;;8.70;99.90;;;;;;5068336;28;20032;-74
2021/10/22 01:49:17;;;;;;;18.92;5.00;;;8.80;99.90;;;;;;5061324;28;20039;-75
2021/10/22 01:51:43;;;;;;;14.25;4.15;;;8.70;99.90;;;;;;5065724;28;20426;-75
2021/10/22 01:54:09;;;;;;;17.80;4.32;;;8.70;99.90;;;;;;5061907;28;20053;-74
2021/10/22 01:56:34;;;;;;;20.25;3.97;;;8.70;99.90;;;;;;5063010;28;20024;-87
2021/10/22 01:59:00;;;;;;;21.67;3.78;;;8.70;99.90;;;;;;5061304;28;20414;-86
2021/10/22 02:01:26;;;;;;;18.10;4.22;;;8.70;99.90;;;;;;5062989;28;20537;-83
2021/10/22 02:03:51;;;;;;;18.33;4.22;;;8.70;99.90;;;;;;5067895;28;20112;-87
2021/10/22 02:06:17;;;;;;;15.63;4.38;;;8.70;99.90;;;;;;5079930;28;20111;-87
2021/10/22 02:08:43;;;;;;;20.52;4.18;;;8.70;99.90;;;;;;5067675;28;20025;-87
2021/10/22 02:11:09;;;;;;;17.52;4.20;;;8.60;99.90;;;;;;5065156;28;20492;-88
2021/10/22 02:13:35;;;;;;;16.27;4.25;;;8.60;99.90;;;;;;5065507;28;20020;-73
2021/10/22 02:16:01;;;;;;;15.43;4.10;;;8.60;99.90;;;;;;5062435;28;20021;-74
2021/10/22 02:18:26;;;;;;;20.45;4.18;;;8.60;99.90;;;;;;5065591;28;20016;-73
2021/10/22 02:20:52;;;;;;;23.05;4.28;;;8.60;99.90;;;;;;5074385;28;20024;-74
2021/10/22 02:23:18;;;;;;;12.52;3.35;;;8.60;99.90;;;;;;5060361;28;20105;-74
2021/10/22 02:25:44;;;;;;;23.27;4.28;;;8.60;99.90;;;;;;5064954;28;20053;-74
2021/10/22 02:28:09;;;;;;;17.33;4.68;;;8.60;99.90;;;;;;5067401;28;20121;-73
2021/10/22 02:30:35;;;;;;;17.55;4.18;;;8.50;99.90;;;;;;5071490;28;20025;-73
2021/10/22 02:33:01;;;;;;;17.40;4.95;;;8.50;99.90;;;;;;5071065;28;20028;-73
2021/10/22 02:35:27;;;;;;;16.08;4.90;;;8.50;99.90;;;;;;5070135;28;20013;-73
2021/10/22 02:37:53;;;;;;;16.30;4.68;;;8.50;99.90;;;;;;5071880;28;20055;-73
2021/10/22 02:40:19;;;;;;;21.42;4.97;;;8.40;99.90;;;;;;5060229;28;20036;-73
2021/10/22 02:42:44;;;;;;;19.25;4.15;;;8.50;99.90;;;;;;5066654;28;20063;-73
2021/10/22 02:45:10;;;;;;;14.05;4.47;;;8.50;99.90;;;;;;5063609;28;20448;-73
2021/10/22 02:47:36;;;;;;;18.63;5.00;;;8.50;99.90;;;;;;5068496;28;20017;-74
2021/10/22 02:50:01;;;;;;;20.55;5.20;;;8.50;99.90;;;;;;5069722;28;20070;-73
2021/10/22 02:52:28;;;;;;;15.13;4.55;;;8.50;99.90;;;;;;5066888;28;20116;-75
2021/10/22 02:54:53;;;;;;;22.48;5.05;;;8.50;99.90;;;;;;5061163;28;20025;-74
2021/10/22 02:57:19;;;;;;;20.65;4.50;;;8.50;99.90;;;;;;5066067;28;20393;-73
2021/10/22 02:59:44;;;;;;;19.73;4.60;;;8.50;99.90;;;;;;5064283;28;20025;-74
2021/10/22 03:02:10;;;;;;;19.33;4.45;;;8.40;99.90;;;;;;5071262;28;20437;-74
2021/10/22 03:04:36;;;;;;;18.90;4.63;;;8.40;99.90;;;;;;5062843;28;20023;-75
2021/10/22 03:07:01;;;;;;;23.55;4.32;;;8.40;99.90;;;;;;5060896;28;20482;-74
2021/10/22 03:09:27;;;;;;;20.13;5.38;;;8.40;99.90;;;;;;5068256;28;20020;-74
2021/10/22 03:11:52;;;;;;;16.48;4.45;;;8.40;99.90;;;;;;5061243;28;20078;-78
2021/10/22 03:14:18;;;;;;;18.63;3.92;;;8.20;99.90;;;;;;5071588;28;20032;-74
2021/10/22 03:16:43;;;;;;;18.42;3.97;;;8.20;99.90;;;;;;5064603;28;20029;-81
2021/10/22 03:19:11;;;;;;;16.00;4.20;;;8.20;99.90;;;;;;5064872;28;20472;-74
2021/10/22 03:21:39;;;;;;;18.00;4.07;;;8.30;99.90;;;;;;5064209;28;20029;-74
2021/10/22 03:24:05;;;;;;;19.35;4.35;;;8.20;99.90;;;;;;5071663;28;20040;-74
2021/10/22 03:26:30;;;;;;;17.60;4.53;;;8.20;99.90;;;;;;5061705;28;20094;-74
2021/10/22 03:28:56;;;;;;;14.10;3.38;;;8.30;99.90;;;;;;5064934;28;20075;-74
2021/10/22 03:31:22;;;;;;;11.63;3.70;;;8.20;99.90;;;;;;5060672;28;20037;-76
2021/10/22 03:33:47;;;;;;;12.80;3.72;;;8.20;99.90;;;;;;5066261;28;20020;-76
2021/10/22 03:36:13;;;;;;;20.00;4.07;;;8.20;99.90;;;;;;5061976;28;20029;-74
2021/10/22 03:38:38;;;;;;;16.58;3.83;;;8.10;99.90;;;;;;5061784;28;20024;-75
2021/10/22 03:41:04;;;;;;;19.00;4.28;;;8.10;99.90;;;;;;5066244;28;20131;-73
2021/10/22 03:43:30;;;;;;;18.00;3.83;;;8.00;99.90;;;;;;5058704;28;20428;-77
2021/10/22 03:45:56;;;;;;;15.15;3.38;;;8.00;99.90;;;;;;5064891;28;20086;-74
2021/10/22 03:48:22;;;;;;;15.20;3.65;;;8.00;99.90;;;;;;5059906;28;20648;-74
2021/10/22 03:50:48;;;;;;;16.25;3.67;;;8.00;99.90;;;;;;5061067;28;20059;-73
2021/10/22 03:53:14;;;;;;;20.40;3.78;;;8.00;99.90;;;;;;5060498;28;20032;-74
2021/10/22 03:55:39;;;;;;;11.98;3.95;;;8.00;99.90;;;;;;5057658;28;20035;-74
2021/10/22 03:58:05;;;;;;;15.73;3.67;;;8.00;99.90;;;;;;5067063;28;20035;-74
2021/10/22 04:00:30;;;;;;;12.57;3.38;;;8.10;99.90;;;;;;5064860;28;20142;-73
2021/10/22 04:02:56;;;;;;;17.73;4.00;;;8.20;99.90;;;;;;5058471;28;20033;-73
2021/10/22 04:05:22;;;;;;;17.85;4.38;;;8.10;99.90;;;;;;5054162;28;20100;-73
2021/10/22 04:07:47;;;;;;;18.90;4.13;;;8.10;99.90;;;;;;5066079;28;20372;-73
2021/10/22 04:10:13;;;;;;;11.98;3.75;;;8.10;99.90;;;;;;5060179;28;20025;-73
2021/10/22 04:12:39;;;;;;;23.27;4.50;;;8.00;99.90;;;;;;5065734;28;20045;-73
2021/10/22 04:15:05;;;;;;;14.02;4.60;;;8.00;99.90;;;;;;5058201;28;20025;-73
2021/10/22 04:17:31;;;;;;;15.23;4.70;;;8.00;99.90;;;;;;5069445;28;20021;-74
2021/10/22 04:19:56;;;;;;;27.40;5.65;;;7.90;99.90;;;;;;5071502;28;20507;-74
2021/10/22 04:22:22;;;;;;;17.65;5.95;;;8.00;99.90;;;;;;5074828;28;20030;-73
2021/10/22 04:24:48;;;;;;;12.65;5.10;;;8.00;99.90;;;;;;5066384;28;20469;-73
2021/10/22 04:27:14;;;;;;;21.45;5.45;;;7.90;99.90;;;;;;5068009;28;20051;-74
2021/10/22 04:29:40;;;;;;;15.23;5.38;;;8.00;99.90;;;;;;5064264;28;20056;-74
2021/10/22 04:32:05;;;;;;;14.95;5.03;;;8.00;99.90;;;;;;5075940;28;20021;-73
2021/10/22 04:34:31;;;;;;;21.85;5.95;;;8.10;99.90;;;;;;5064558;28;20575;-74
2021/10/22 04:37:23;;;;;;;19.23;5.30;;;8.10;99.90;;;;;;5071540;28;20032;-74
2021/10/22 04:40:33;;;;;;;17.40;5.22;;;8.00;99.90;;;;;;5068193;28;20032;-74
2021/10/22 04:42:45;;;;;;;16.38;4.90;;;8.00;99.90;;;;;;5071654;28;20525;-73
2021/10/22 04:45:11;;;;;;;21.55;5.15;;;8.10;99.90;;;;;;5064341;28;20024;-74
2021/10/22 04:47:40;;;;;;;14.68;5.18;;;8.00;99.90;;;;;;5068932;28;20036;-74
2021/10/22 04:50:08;;;;;;;21.80;5.65;;;8.00;99.90;;;;;;5070583;28;20032;-74
2021/10/22 04:52:34;;;;;;;20.30;5.32;;;8.00;99.90;;;;;;5060339;28;20104;-75
2021/10/22 04:55:00;;;;;;;20.23;6.47;;;7.90;99.90;;;;;;5069574;28;20086;-74
2021/10/22 04:57:26;;;;;;;20.58;4.97;;;7.90;99.90;;;;;;5075667;28;20024;-73
2021/10/22 04:59:52;;;;;;;16.73;5.85;;;8.00;99.90;;;;;;5063479;28;20385;-74
2021/10/22 05:02:17;;;;;;;17.08;4.80;;;7.90;99.90;;;;;;5072983;28;20032;-74
2021/10/22 05:04:43;;;;;;;19.58;4.85;;;7.90;99.90;;;;;;5071242;28;20158;-73
2021/10/22 05:07:08;;;;;;;17.48;3.58;;;8.00;99.90;;;;;;5069373;28;20033;-74
2021/10/22 05:09:34;;;;;;;16.63;4.20;;;8.00;99.90;;;;;;5070259;28;20085;-73
2021/10/22 05:12:05;;;;;;;12.55;3.95;;;7.90;99.90;;;;;;5067909;28;20028;-74
2021/10/22 05:14:32;;;;;;;12.13;3.53;;;7.90;99.90;;;;;;5071378;28;20016;-76
2021/10/22 05:16:58;;;;;;;14.07;3.22;;;7.90;99.90;;;;;;5073484;28;20020;-76
2021/10/22 05:19:23;;;;;;;13.00;3.30;;;7.90;99.90;;;;;;5060823;28;20538;-74
2021/10/22 05:21:49;;;;;;;15.73;3.47;;;7.90;99.90;;;;;;5063554;28;20065;-74
2021/10/22 05:24:14;;;;;;;20.13;3.10;;;7.90;99.90;;;;;;5068985;28;20035;-74
2021/10/22 05:26:40;;;;;;;11.20;3.95;;;7.80;99.90;;;;;;5064918;28;20090;-74
2021/10/22 05:29:05;;;;;;;11.00;3.92;;;7.80;99.90;;;;;;5071444;28;20062;-74
2021/10/22 05:31:32;;;;;;;12.63;3.53;;;7.90;99.90;;;;;;5059096;28;20073;-75
2021/10/22 05:33:58;;;;;;;14.82;3.17;;;7.90;99.90;;;;;;5062423;28;20071;-74
2021/10/22 05:36:24;;;;;;;14.40;3.47;;;7.90;99.90;;;;;;5064605;28;20021;-74
2021/10/22 05:38:51;;;;;;;12.15;2.67;;;7.90;99.90;;;;;;5068839;28;20055;-74
2021/10/22 05:41:17;;;;;;;13.68;2.83;;;7.90;99.90;;;;;;5063287;28;20112;-75
2021/10/22 05:43:42;;;;;;;16.63;3.15;;;7.90;99.90;;;;;;5070253;28;20108;-74
2021/10/22 05:46:08;;;;;;;10.88;2.90;;;7.90;99.90;;;;;;5062310;28;20089;-74
2021/10/22 05:48:34;;;;;;;12.18;2.78;;;7.90;99.90;;;;;;5066419;28;20024;-76
2021/10/22 05:51:00;;;;;;;15.05;3.42;;;7.90;99.90;;;;;;5071963;28;20451;-74
2021/10/22 05:53:26;;;;;;;10.95;3.42;;;7.90;99.90;;;;;;5063696;28;20104;-84
2021/10/22 05:55:52;;;;;;;16.58;3.08;;;7.90;99.90;;;;;;5069155;28;20120;-74
2021/10/22 05:58:17;;;;;;;8.63;2.78;;;7.90;99.90;;;;;;5069517;28;20017;-74
2021/10/22 06:00:43;;;;;;;13.55;2.58;;;7.80;99.90;;;;;;5067380;28;20047;-74
2021/10/22 06:03:09;;;;;;;15.02;3.25;;;7.90;99.90;;;;;;5063014;28;20032;-75
2021/10/22 06:05:38;;;;;;;12.70;3.53;;;7.90;99.90;;;;;;5062355;28;20033;-74
2021/10/22 06:08:05;;;;;;;12.23;2.70;;;7.90;99.90;;;;;;5064056;28;20044;-83
2021/10/22 06:10:30;;;;;;;10.10;2.90;;;7.90;99.90;;;;;;5073073;28;20040;-74
2021/10/22 06:12:56;;;;;;;10.80;2.88;;;7.90;99.90;;;;;;5058928;28;20020;-74
2021/10/22 06:15:22;;;;;;;14.30;2.97;;;8.00;99.90;;;;;;5061833;28;20503;-74
2021/10/22 06:17:48;;;;;;;13.75;3.25;;;7.90;99.90;;;;;;5071430;28;20031;-74
2021/10/22 06:20:24;;;;;;;11.70;3.30;;;8.00;99.90;;;;;;5068227;28;20033;-75
2021/10/22 06:25:35;;;;;;;16.30;3.60;;;8.00;99.90;;;;;;5066096;28;20039;-75
2021/10/22 06:28:01;;;;;;;16.40;3.33;;;8.00;99.90;;;;;;5062245;28;20625;-74
2021/10/22 06:30:27;;;;;;;12.25;3.03;;;8.00;99.90;;;;;;5058410;28;20032;-74
2021/10/22 06:32:53;;;;;;;18.00;3.83;;;8.00;99.90;;;;;;5063852;28;20029;-74
2021/10/22 06:35:18;;;;;;;13.55;3.13;;;8.00;99.90;;;;;;5061414;28;20492;-75
2021/10/22 06:37:44;;;;;;;7.10;2.38;;;8.00;99.90;;;;;;5059039;28;20476;-74
2021/10/22 06:40:10;;;;;;;14.25;2.63;;;8.00;99.90;;;;;;5058412;28;20045;-75
2021/10/22 06:42:36;;;;;;;10.18;2.38;;;8.00;99.90;;;;;;5067272;28;20025;-75
2021/10/22 06:45:02;;;;;;;14.02;3.55;;;8.10;99.90;;;;;;5065541;28;20526;-75
2021/10/22 06:47:28;;;;;;;9.15;3.42;;;8.10;99.90;;;;;;5066865;28;20469;-74
2021/10/22 06:49:53;;;;;;;17.38;3.50;;;8.10;99.90;;;;;;5062491;28;20031;-74
2021/10/22 06:52:19;;;;;;;9.77;3.60;;;8.10;99.90;;;;;;5063522;28;20021;-74
2021/10/22 06:54:45;;;;;;;13.13;2.90;;;8.10;99.90;;;;;;5063997;28;20021;-75
2021/10/22 06:57:10;;;;;;;8.93;2.85;;;8.20;99.90;;;;;;5066607;28;20529;-75
2021/10/22 06:59:36;;;;;;;43.72;29.52;;;8.10;99.90;;;;;;5064705;28;20071;-75
2021/10/22 07:02:02;;;;;;;14.50;2.92;;;8.20;99.90;;;;;;5063765;28;20032;-74
2021/10/22 07:04:27;;;;;;;8.38;2.80;;;8.20;99.90;;;;;;5058582;28;20017;-75
2021/10/22 07:09:41;;;;;;;9.23;2.83;;;8.20;99.90;;;;;;5059026;28;20548;-74
2021/10/22 07:12:06;;;;;;;12.32;3.10;;;8.30;99.90;;;;;;5068730;28;20028;-74
2021/10/22 07:14:34;;;;;;;12.27;2.63;;;8.30;99.90;;;;;;5059103;28;20035;-74
2021/10/22 07:17:06;;;;;;;12.23;2.95;;;8.40;99.90;;;;;;5071688;28;20020;-88
2021/10/22 07:19:36;;;;;;;17.52;3.28;;;8.50;99.90;;;;;;5057975;28;20025;-91
2021/10/22 07:22:09;;;;;;;12.70;2.83;;;8.50;99.90;;;;;;5061806;28;20039;-90
2021/10/22 07:24:34;;;;;;;10.88;2.78;;;8.60;99.90;;;;;;5060228;28;20062;-88
2021/10/22 07:27:01;;;;;;;11.50;2.75;;;8.60;99.90;;;;;;5065662;28;20045;-88
2021/10/22 07:29:27;;;;;;;9.73;3.10;;;8.60;99.90;;;;;;5067164;28;20021;-85
2021/10/22 07:31:54;;;;;;;10.50;2.38;;;8.70;99.90;;;;;;5067933;28;20049;-84
2021/10/22 07:34:21;;;;;;;21.20;3.55;;;8.70;99.90;;;;;;5072682;28;20028;-86
2021/10/22 07:36:48;;;;;;;8.85;2.58;;;8.80;99.90;;;;;;5069404;28;20097;-75
2021/10/22 07:39:15;;;;;;;9.27;2.28;;;8.90;99.90;;;;;;5070666;28;20477;-77
2021/10/22 07:41:41;;;;;;;17.60;2.67;;;9.00;99.90;;;;;;5070074;28;20033;-76
2021/10/22 07:44:07;;;;;;;11.88;2.63;;;8.90;99.90;;;;;;5071584;28;20017;-78
2021/10/22 07:46:32;;;;;;;14.82;2.85;;;9.00;99.90;;;;;;5063352;28;20420;-83
2021/10/22 07:48:58;;;;;;;10.98;2.30;;;8.90;99.90;;;;;;5066794;28;20029;-83
2021/10/22 07:51:24;;;;;;;10.48;2.70;;;9.00;99.90;;;;;;5070313;28;20111;-76
2021/10/22 07:53:50;;;;;;;16.58;2.55;;;9.10;99.90;;;;;;5070114;28;20024;-86
2021/10/22 07:56:17;;;;;;;11.02;2.75;;;9.10;99.90;;;;;;5062237;28;20032;-85
2021/10/22 07:58:44;;;;;;;15.63;2.85;;;9.20;99.90;;;;;;5073520;28;20021;-79
2021/10/22 08:01:10;;;;;;;11.35;3.10;;;9.20;99.90;;;;;;5055760;28;20032;-76
2021/10/22 08:03:36;;;;;;;15.90;3.13;;;9.30;99.90;;;;;;5060807;28;20024;-77
2021/10/22 08:06:02;;;;;;;10.10;2.80;;;9.30;99.90;;;;;;5056071;28;20029;-76
2021/10/22 08:08:30;;;;;;;10.73;3.38;;;9.40;99.90;;;;;;5068957;28;20063;-75
2021/10/22 08:10:55;;;;;;;11.68;2.90;;;9.40;99.90;;;;;;5063795;28;20074;-81
2021/10/22 08:13:21;;;;;;;13.77;3.10;;;9.40;99.90;;;;;;5066123;28;20021;-82
2021/10/22 08:15:47;;;;;;;12.93;2.75;;;9.50;99.90;;;;;;5067269;28;20030;-82
2021/10/22 08:18:14;;;;;;;10.80;3.03;;;9.50;99.90;;;;;;5059424;28;20021;-79
2021/10/22 08:20:47;;;;;;;6.82;2.78;;;9.60;99.90;;;;;;5069966;28;20501;-76
2021/10/22 08:23:13;;;;;;;12.45;2.83;;;9.60;99.90;;;;;;5063754;28;20487;-76
2021/10/22 08:25:39;;;;;;;13.68;3.15;;;9.70;99.90;;;;;;5061399;28;20021;-77
2021/10/22 08:28:04;;;;;;;12.20;2.92;;;9.70;99.90;;;;;;5058380;28;20035;-75
2021/10/22 08:30:31;;;;;;;14.18;2.67;;;9.70;99.90;;;;;;5061816;28;20037;-74
2021/10/22 08:32:57;;;;;;;11.55;2.83;;;9.70;99.90;;;;;;5059867;28;20021;-75
2021/10/22 08:35:26;;;;;;;9.13;3.05;;;9.80;99.90;;;;;;5059642;28;20037;-75
2021/10/22 08:37:52;;;;;;;9.43;2.83;;;9.80;99.90;;;;;;5059299;28;20021;-75
2021/10/22 08:40:19;;;;;;;13.88;3.05;;;9.90;99.90;;;;;;5068605;28;20109;-75
2021/10/22 08:42:45;;;;;;;12.05;2.58;;;10.00;99.90;;;;;;5057409;28;20053;-76
2021/10/22 08:45:12;;;;;;;10.00;2.97;;;10.20;99.90;;;;;;5056070;28;20052;-75
2021/10/22 08:47:39;;;;;;;13.50;3.10;;;10.20;99.90;;;;;;5068569;28;20021;-77
2021/10/22 08:50:09;;;;;;;11.07;3.20;;;10.20;99.90;;;;;;5064970;28;20032;-75
2021/10/22 08:52:35;;;;;;;12.45;2.90;;;10.30;99.90;;;;;;5070739;28;20025;-76
2021/10/22 08:55:03;;;;;;;13.20;2.78;;;10.30;99.90;;;;;;5063652;28;20440;-76
2021/10/22 08:57:29;;;;;;;19.15;2.85;;;10.30;99.90;;;;;;5065242;28;20056;-77
2021/10/22 08:59:58;;;;;;;12.60;2.80;;;10.40;99.90;;;;;;5066831;28;20452;-76
2021/10/22 09:02:25;;;;;;;12.20;3.10;;;10.50;99.90;;;;;;5068114;28;20083;-76
2021/10/22 09:04:57;;;;;;;19.13;6.13;;;10.60;99.90;;;;;;5064706;28;20029;-77
2021/10/22 09:07:46;;;;;;;10.90;2.17;;;10.70;99.90;;;;;;5071193;28;20058;-75
2021/10/22 09:10:18;;;;;;;14.15;2.80;;;10.80;99.90;;;;;;5068813;28;20036;-76
2021/10/22 09:12:54;;;;;;;12.82;2.75;;;10.90;99.90;;;;;;5072943;28;20487;-76
2021/10/22 09:15:19;;;;;;;11.40;2.92;;;11.00;99.90;;;;;;5071193;28;20032;-78
2021/10/22 09:17:47;;;;;;;12.80;2.60;;;11.10;99.90;;;;;;5071480;28;20020;-76
2021/10/22 09:20:13;;;;;;;12.38;2.90;;;11.30;99.90;;;;;;5075177;28;20064;-76
2021/10/22 09:22:40;;;;;;;10.77;2.80;;;11.30;99.90;;;;;;5071106;28;20111;-75
2021/10/22 09:25:11;;;;;;;16.08;2.75;;;11.40;99.90;;;;;;5073852;28;20028;-76
2021/10/22 09:27:44;;;;;;;10.07;3.10;;;11.50;99.90;;;;;;5064378;28;20033;-79
2021/10/22 09:30:47;;;;;;;13.25;2.97;;;11.60;99.90;;;;;;5064648;28;20078;-78
2021/10/22 09:33:19;;;;;;;12.60;3.10;;;11.60;99.90;;;;;;5067008;28;20033;-78
2021/10/22 09:35:53;;;;;;;11.68;3.10;;;11.70;99.90;;;;;;5066517;28;20032;-77
2021/10/22 09:38:27;;;;;;;10.75;2.53;;;11.70;99.90;;;;;;5075046;28;20027;-75
2021/10/22 09:41:00;;;;;;;9.90;2.10;;;11.80;99.90;;;;;;5059872;28;20457;-79
2021/10/22 09:43:30;;;;;;;10.60;2.53;;;12.00;99.90;;;;;;5067663;28;20488;-76
2021/10/22 09:46:14;;;;;;;9.63;2.65;;;12.00;99.90;;;;;;5070391;28;20536;-76
2021/10/22 09:48:43;;;;;;;12.13;3.25;;;12.20;99.90;;;;;;5070836;28;20032;-79
2021/10/22 09:51:33;;;;;;;14.98;2.85;;;12.30;99.90;;;;;;5063319;28;20021;-77
2021/10/22 09:54:03;;;;;;;11.15;2.70;;;12.30;99.90;;;;;;5069998;28;20013;-77
2021/10/22 09:56:29;;;;;;;15.48;2.60;;;12.40;99.90;;;;;;5069465;28;20089;-78
2021/10/22 09:59:02;;;;;;;9.18;2.80;;;12.40;99.90;;;;;;5063315;28;20025;-75
2021/10/22 10:01:30;;;;;;;12.40;2.45;;;12.50;99.90;;;;;;5066614;28;20108;-76
2021/10/22 10:03:58;;;;;;;12.90;2.50;;;12.50;99.90;;;;;;5063640;28;20016;-76
2021/10/22 10:06:24;;;;;;;15.95;4.20;;;12.60;99.90;;;;;;5070707;28;20565;-78
2021/10/22 10:08:50;;;;;;;12.48;2.83;;;12.70;99.90;;;;;;5074046;28;20024;-77
2021/10/22 10:11:16;;;;;;;17.65;2.72;;;12.80;99.90;;;;;;5067055;28;20025;-78
2021/10/22 10:13:42;;;;;;;9.80;2.70;;;12.70;99.90;;;;;;5071090;28;20028;-76
2021/10/22 10:16:09;;;;;;;10.32;2.60;;;12.70;99.90;;;;;;5069730;28;20023;-76
2021/10/22 10:18:45;;;;;;;12.73;2.35;;;12.90;99.90;;;;;;5064764;28;20025;-75
2021/10/22 10:21:14;;;;;;;9.30;2.10;;;12.90;99.90;;;;;;5062108;28;20036;-75
2021/10/22 10:23:44;;;;;;;13.95;2.33;;;12.80;99.90;;;;;;5061977;28;20420;-77
2021/10/22 10:26:22;;;;;;;12.10;2.70;;;12.80;99.90;;;;;;5065844;28;20020;-76
2021/10/22 10:28:50;;;;;;;11.07;2.10;;;12.80;99.90;;;;;;5062172;28;20056;-76
2021/10/22 10:31:30;;;;;;;11.60;2.78;;;12.70;99.90;;;;;;5065156;28;20016;-76
2021/10/22 10:33:56;;;;;;;13.15;3.10;;;12.80;99.90;;;;;;5071399;28;20041;-76
2021/10/22 10:36:48;;;;;;;10.80;2.40;;;12.80;99.90;;;;;;5067259;28;20033;-76
2021/10/22 10:39:14;;;;;;;8.65;2.38;;;12.70;99.90;;;;;;5065621;28;20560;-75
2021/10/22 10:41:40;;;;;;;12.35;2.72;;;12.80;99.90;;;;;;5061201;28;20058;-76
2021/10/22 10:44:24;;;;;;;12.38;2.88;;;12.90;99.90;;;;;;5061195;28;20111;-77
2021/10/22 10:46:50;;;;;;;8.93;2.60;;;13.00;99.90;;;;;;5068343;28;20040;-76
2021/10/22 10:49:51;;;;;;;11.73;2.67;;;13.00;99.90;;;;;;5063937;28;20025;-79
2021/10/22 10:52:38;;;;;;;9.32;2.40;;;12.80;99.90;;;;;;5029705;28;20029;-76
2021/10/22 10:55:14;;;;;;;10.52;2.38;;;12.90;99.90;;;;;;5062684;28;20043;-76
2021/10/22 10:57:53;;;;;;;13.30;3.15;;;13.10;99.90;;;;;;5067786;28;20025;-77
2021/10/22 11:00:26;;;;;;;9.43;2.47;;;13.30;99.90;;;;;;5069332;28;20032;-76
2021/10/22 11:03:07;;;;;;;9.32;2.13;;;13.40;99.90;;;;;;5064197;28;20025;-75
2021/10/22 11:05:42;;;;;;;7.55;2.20;;;13.50;99.90;;;;;;5064914;28;20115;-75
2021/10/22 11:08:25;;;;;;;13.13;2.50;;;13.60;99.90;;;;;;5065819;28;20048;-77
2021/10/22 11:11:20;;;;;;;13.18;2.42;;;13.50;99.90;;;;;;5065836;28;20101;-75
2021/10/22 11:13:50;;;;;;;7.03;2.10;;;13.30;99.90;;;;;;5061525;28;20048;-75
2021/10/22 11:16:22;;;;;;;8.63;2.38;;;13.40;99.90;;;;;;5076833;28;20032;-76
2021/10/22 11:19:07;;;;;;;17.27;2.80;;;13.40;99.90;;;;;;5061964;28;20027;-76
2021/10/22 11:21:38;;;;;;;11.43;3.03;;;13.50;99.90;;;;;;5062594;28;20076;-76
2021/10/22 11:24:07;;;;;;;11.65;3.03;;;13.60;99.90;;;;;;5059114;28;20025;-76
2021/10/22 11:26:36;;;;;;;10.55;2.92;;;13.60;99.90;;;;;;5061973;28;20031;-76
2021/10/22 11:29:30;;;;;;;10.50;2.78;;;13.50;99.90;;;;;;5058240;28;20035;-76
2021/10/22 11:32:03;;;;;;;11.95;2.30;;;13.40;99.90;;;;;;5059071;28;20497;-77
2021/10/22 11:34:35;;;;;;;8.00;2.58;;;13.30;99.90;;;;;;5052601;28;20124;-87
2021/10/22 11:37:11;;;;;;;11.73;2.10;;;13.40;99.90;;;;;;5063966;28;20027;-83
2021/10/22 11:40:00;;;;;;;10.98;2.45;;;13.40;99.90;;;;;;5072724;28;20032;-84
2021/10/22 11:42:35;;;;;;;11.48;2.78;;;13.50;99.90;;;;;;5076971;28;20103;-85
2021/10/22 11:45:16;;;;;;;7.57;2.53;;;13.70;99.90;;;;;;5056783;28;20028;-88
2021/10/22 11:48:00;;;;;;;9.80;2.17;;;13.50;99.90;;;;;;5068830;28;20028;-87
2021/10/22 11:50:32;;;;;;;7.85;2.22;;;13.50;99.90;;;;;;5067804;28;20488;-83
2021/10/22 11:53:14;;;;;;;11.23;2.35;;;13.40;99.90;;;;;;5068542;28;20029;-80
2021/10/22 11:55:42;;;;;;;8.40;2.65;;;13.40;99.90;;;;;;5062977;28;20013;-80
2021/10/22 11:58:10;;;;;;;9.32;2.55;;;13.40;99.90;;;;;;5069653;28;20029;-81
2021/10/22 12:00:37;;;;;;;10.25;3.17;;;13.30;99.90;;;;;;5068714;28;20056;-82
2021/10/22 12:03:03;;;;;;;9.95;2.70;;;13.30;99.90;;;;;;5060531;28;20029;-79
2021/10/22 12:05:30;;;;;;;10.88;2.63;;;13.30;99.90;;;;;;5069132;28;20024;-75
2021/10/22 12:07:57;;;;;;;9.93;2.85;;;13.40;99.90;;;;;;5056076;28;20025;-77
2021/10/22 12:10:27;;;;;;;12.10;2.55;;;13.60;99.90;;;;;;5060523;28;20032;-78
2021/10/22 12:12:54;;;;;;;10.45;2.83;;;13.50;99.90;;;;;;5062779;28;20028;-78
2021/10/22 12:15:31;;;;;;;9.82;3.08;;;13.50;99.90;;;;;;5065282;28;20103;-78
2021/10/22 12:17:59;;;;;;;8.45;2.10;;;13.70;99.90;;;;;;5067175;28;20030;-83
2021/10/22 12:20:26;;;;;;;9.68;2.47;;;13.60;99.90;;;;;;5062737;28;20052;-84
2021/10/22 12:22:58;;;;;;;13.85;2.70;;;13.50;99.90;;;;;;5059710;28;20519;-79
2021/10/22 12:25:26;;;;;;;7.13;2.30;;;13.50;99.90;;;;;;5055014;28;20028;-78
2021/10/22 12:28:13;;;;;;;13.38;2.80;;;13.50;99.90;;;;;;5074890;28;20111;-78
2021/10/22 12:30:39;;;;;;;12.85;3.00;;;13.40;99.90;;;;;;5065565;28;20054;-77
2021/10/22 12:33:05;;;;;;;9.73;2.70;;;13.60;99.90;;;;;;5064892;28;20035;-78
2021/10/22 12:35:38;;;;;;;9.02;2.67;;;13.60;99.90;;;;;;5067350;28;20066;-77
2021/10/22 12:38:09;;;;;;;8.13;2.08;;;13.60;99.90;;;;;;5066508;28;20043;-78
2021/10/22 12:40:46;;;;;;;14.27;3.08;;;13.60;99.90;;;;;;5060293;28;20037;-78
2021/10/22 12:43:23;;;;;;;13.88;3.00;;;13.50;99.90;;;;;;5068622;28;20491;-78
2021/10/22 12:46:04;;;;;;;9.75;2.55;;;13.60;99.90;;;;;;5078033;28;20388;-83
2021/10/22 12:48:31;;;;;;;9.60;3.00;;;13.60;99.90;;;;;;5066913;28;20033;-77
2021/10/22 12:51:15;;;;;;;12.02;2.78;;;13.60;99.90;;;;;;5062963;28;20116;-81
2021/10/22 12:53:46;;;;;;;8.80;2.22;;;13.60;99.90;;;;;;5065631;28;20469;-79
2021/10/22 12:56:13;;;;;;;9.38;2.03;;;13.60;99.90;;;;;;5065472;28;20489;-81
2021/10/22 12:58:40;;;;;;;9.07;2.20;;;13.40;99.90;;;;;;5067129;28;20028;-79